Time;durP1;ratioP1;P1;durP2;ratioP2;P2;SDS_P1;SDS_P2;PMS_P1;PMS_P2;Temp;Humidity;BMP_temperature;BMP_pressure;BME280_temperature;BME280_humidity;BME280_pressure;Samples;Min_cycle;Max_cycle;Signal;HPM_P1;HPM_P2
2024/01/29 00:02:00;;;;;;;2.10;2.00;;;;;;;;;;5092227;28;20204;-62
2024/01/29 00:04:27;;;;;;;1.97;1.80;;;;;;;;;;5086768;28;20222;-62
2024/01/29 00:06:54;;;;;;;2.30;1.90;;;;;;;;;;5086921;28;20211;-62
2024/01/29 00:09:21;;;;;;;2.20;2.10;;;;;;;;;;5087396;28;20235;-62
2024/01/29 00:11:49;;;;;;;4.63;2.03;;;;;;;;;;5087013;28;20562;-62
2024/01/29 00:14:17;;;;;;;1.93;1.73;;;;;;;;;;5090606;28;20208;-62
2024/01/29 00:16:44;;;;;;;5.50;1.90;;;;;;;;;;5073895;28;20587;-63
2024/01/29 00:19:11;;;;;;;4.73;2.17;;;;;;;;;;5083956;28;20198;-62
2024/01/29 00:21:38;;;;;;;3.93;2.17;;;;;;;;;;5087269;28;20199;-62
2024/01/29 00:24:06;;;;;;;2.23;2.03;;;;;;;;;;5087113;28;20208;-62
2024/01/29 00:26:33;;;;;;;4.90;2.27;;;;;;;;;;5085653;28;20203;-62
2024/01/29 00:29:01;;;;;;;2.37;2.17;;;;;;;;;;5088679;28;20256;-62
2024/01/29 00:31:29;;;;;;;2.10;1.80;;;;;;;;;;5086894;28;20218;-62
2024/01/29 00:33:56;;;;;;;3.33;2.23;;;;;;;;;;5087123;28;20209;-62
2024/01/29 00:36:23;;;;;;;2.70;2.33;;;;;;;;;;5087336;28;20210;-62
2024/01/29 00:38:50;;;;;;;4.70;2.50;;;;;;;;;;5087522;28;20210;-62
2024/01/29 00:41:17;;;;;;;5.00;2.10;;;;;;;;;;5086528;28;20196;-62
2024/01/29 00:43:44;;;;;;;2.70;2.30;;;;;;;;;;5092645;28;20210;-62
2024/01/29 00:46:13;;;;;;;7.73;2.20;;;;;;;;;;5086609;28;20230;-62
2024/01/29 00:48:40;;;;;;;1.97;1.87;;;;;;;;;;5086845;28;20287;-61
2024/01/29 00:51:07;;;;;;;2.80;2.20;;;;;;;;;;5087444;28;20235;-62
2024/01/29 00:53:34;;;;;;;3.50;2.50;;;;;;;;;;5087149;28;20202;-62
2024/01/29 00:56:01;;;;;;;2.60;2.40;;;;;;;;;;5084584;28;20218;-62
2024/01/29 00:58:28;;;;;;;2.97;2.20;;;;;;;;;;5084060;28;20573;-62
2024/01/29 01:00:55;;;;;;;2.40;2.20;;;;;;;;;;5083285;28;20210;-62
2024/01/29 01:03:24;;;;;;;2.73;2.53;;;;;;;;;;5085355;28;20582;-62
2024/01/29 01:05:51;;;;;;;3.07;2.37;;;;;;;;;;5093792;28;20198;-62
2024/01/29 01:08:18;;;;;;;2.33;2.10;;;;;;;;;;5073660;28;20200;-62
2024/01/29 01:10:45;;;;;;;2.30;2.13;;;;;;;;;;5088915;28;20735;-62
2024/01/29 01:13:12;;;;;;;4.00;2.33;;;;;;;;;;5086292;28;20197;-62
2024/01/29 01:15:39;;;;;;;3.40;2.17;;;;;;;;;;5083880;28;20765;-62
2024/01/29 01:18:06;;;;;;;2.83;2.10;;;;;;;;;;5083379;28;20195;-62
2024/01/29 01:20:35;;;;;;;2.20;2.10;;;;;;;;;;5086417;28;20203;-62
2024/01/29 01:23:02;;;;;;;4.40;2.33;;;;;;;;;;5084071;28;20648;-60
2024/01/29 01:25:29;;;;;;;4.33;2.50;;;;;;;;;;5085876;28;20298;-63
2024/01/29 01:27:56;;;;;;;3.43;2.60;;;;;;;;;;5089375;28;20211;-63
2024/01/29 01:30:23;;;;;;;2.03;1.93;;;;;;;;;;5087771;28;20203;-63
2024/01/29 01:32:50;;;;;;;2.37;2.27;;;;;;;;;;5086789;28;20230;-63
2024/01/29 01:35:17;;;;;;;2.23;2.13;;;;;;;;;;5086897;28;20680;-63
2024/01/29 01:37:46;;;;;;;4.73;2.23;;;;;;;;;;5087788;28;20611;-63
2024/01/29 01:40:13;;;;;;;2.37;2.00;;;;;;;;;;5089303;28;20209;-60
2024/01/29 01:42:42;;;;;;;2.33;2.23;;;;;;;;;;5088960;28;20698;-60
2024/01/29 01:45:09;;;;;;;5.13;2.10;;;;;;;;;;5083645;28;20714;-60
2024/01/29 01:47:36;;;;;;;3.33;1.97;;;;;;;;;;5089296;28;20255;-60
2024/01/29 01:50:04;;;;;;;2.10;2.00;;;;;;;;;;5089303;28;20668;-61
2024/01/29 01:52:31;;;;;;;2.27;2.07;;;;;;;;;;5089671;28;20224;-60
2024/01/29 01:55:00;;;;;;;2.37;2.17;;;;;;;;;;5089349;28;20202;-63
2024/01/29 01:57:27;;;;;;;2.57;2.33;;;;;;;;;;5089147;28;20210;-61
2024/01/29 01:59:54;;;;;;;3.47;2.20;;;;;;;;;;5089355;28;20205;-62
2024/01/29 02:02:22;;;;;;;2.10;2.00;;;;;;;;;;5089041;28;20204;-63
2024/01/29 02:04:49;;;;;;;2.73;2.20;;;;;;;;;;5089104;28;20719;-62
2024/01/29 02:07:16;;;;;;;3.57;2.57;;;;;;;;;;5089881;28;20210;-62
2024/01/29 02:09:43;;;;;;;2.63;2.43;;;;;;;;;;5089784;28;20229;-63
2024/01/29 02:12:11;;;;;;;3.83;2.20;;;;;;;;;;5089374;28;20241;-63
2024/01/29 02:14:38;;;;;;;5.37;1.90;;;;;;;;;;5090058;28;20664;-65
2024/01/29 02:17:05;;;;;;;2.83;2.53;;;;;;;;;;5089723;28;20214;-63
2024/01/29 02:19:32;;;;;;;2.90;2.30;;;;;;;;;;5085564;28;20210;-62
2024/01/29 02:21:59;;;;;;;6.00;2.50;;;;;;;;;;5082162;28;20633;-62
2024/01/29 02:24:28;;;;;;;5.80;2.03;;;;;;;;;;5089265;28;20296;-61
2024/01/29 02:29:58;;;;;;;2.47;2.27;;;;;;;;;;5087874;28;20240;-61
2024/01/29 02:32:25;;;;;;;2.30;2.20;;;;;;;;;;5086547;28;20236;-61
2024/01/29 02:34:52;;;;;;;3.80;2.50;;;;;;;;;;5090594;28;20275;-61
2024/01/29 02:37:19;;;;;;;2.87;2.57;;;;;;;;;;5088959;28;20211;-61
2024/01/29 02:39:50;;;;;;;4.50;3.10;;;;;;;;;;5095967;28;20204;-61
2024/01/29 02:42:17;;;;;;;2.40;2.27;;;;;;;;;;5107016;28;20325;-61
2024/01/29 02:44:44;;;;;;;5.50;2.80;;;;;;;;;;5089060;28;20230;-61
2024/01/29 02:47:11;;;;;;;4.97;2.53;;;;;;;;;;5089066;28;20214;-61
2024/01/29 02:49:38;;;;;;;6.77;3.30;;;;;;;;;;5080037;28;20264;-61
2024/01/29 02:52:05;;;;;;;2.60;2.40;;;;;;;;;;5086022;28;20649;-61
2024/01/29 02:54:32;;;;;;;2.80;2.60;;;;;;;;;;5069049;28;20216;-61
2024/01/29 02:57:00;;;;;;;3.60;2.40;;;;;;;;;;5079409;28;20209;-61
2024/01/29 02:59:27;;;;;;;2.70;2.50;;;;;;;;;;5088668;28;20230;-61
2024/01/29 03:01:54;;;;;;;3.67;2.80;;;;;;;;;;5090089;28;20198;-61
2024/01/29 03:04:21;;;;;;;3.80;2.97;;;;;;;;;;5086696;28;20582;-61
2024/01/29 03:06:48;;;;;;;2.53;2.33;;;;;;;;;;5088714;28;20573;-62
2024/01/29 03:09:15;;;;;;;6.10;3.33;;;;;;;;;;5088492;28;20231;-62
2024/01/29 03:11:42;;;;;;;5.80;3.03;;;;;;;;;;5088035;28;20286;-61
2024/01/29 03:14:11;;;;;;;5.40;2.97;;;;;;;;;;5088050;28;20198;-65
2024/01/29 03:16:38;;;;;;;4.60;2.97;;;;;;;;;;5088799;28;20206;-62
2024/01/29 03:19:05;;;;;;;4.57;3.50;;;;;;;;;;5084130;28;20203;-61
2024/01/29 03:21:33;;;;;;;4.97;3.50;;;;;;;;;;5081948;28;20202;-60
2024/01/29 03:24:00;;;;;;;6.07;3.70;;;;;;;;;;5083047;28;20303;-61
2024/01/29 03:26:27;;;;;;;7.07;3.40;;;;;;;;;;5087607;28;20214;-61
2024/01/29 03:28:54;;;;;;;7.13;4.00;;;;;;;;;;5095514;28;20205;-61
2024/01/29 03:31:22;;;;;;;3.40;2.60;;;;;;;;;;5092729;28;20203;-61
2024/01/29 03:33:49;;;;;;;2.53;2.33;;;;;;;;;;5089034;28;20240;-61
2024/01/29 03:36:16;;;;;;;5.63;2.80;;;;;;;;;;5088068;28;20213;-61
2024/01/29 03:38:43;;;;;;;3.70;2.97;;;;;;;;;;5100312;28;20217;-62
2024/01/29 03:41:10;;;;;;;6.57;2.90;;;;;;;;;;5087832;28;20205;-61
2024/01/29 03:43:37;;;;;;;5.07;3.20;;;;;;;;;;5088024;28;20233;-61
2024/01/29 03:46:05;;;;;;;5.27;3.40;;;;;;;;;;5087590;28;20219;-61
2024/01/29 03:48:33;;;;;;;3.97;2.90;;;;;;;;;;5087870;28;20205;-61
2024/01/29 03:51:00;;;;;;;4.40;3.60;;;;;;;;;;5078997;28;20309;-61
2024/01/29 03:53:27;;;;;;;9.03;4.00;;;;;;;;;;5083752;28;20694;-61
2024/01/29 03:55:55;;;;;;;2.67;2.27;;;;;;;;;;5086590;28;20215;-61
2024/01/29 03:58:22;;;;;;;3.80;2.87;;;;;;;;;;5103073;28;20752;-61
2024/01/29 04:00:49;;;;;;;5.97;3.10;;;;;;;;;;5080893;28;20982;-61
2024/01/29 04:03:15;;;;;;;4.80;3.07;;;;;;;;;;5078991;28;20667;-61
2024/01/29 04:05:45;;;;;;;7.10;3.80;;;;;;;;;;5087378;28;20197;-62
2024/01/29 04:08:12;;;;;;;5.97;3.40;;;;;;;;;;5087496;28;20302;-61
2024/01/29 04:10:39;;;;;;;4.07;2.70;;;;;;;;;;5087712;28;20242;-61
2024/01/29 04:13:06;;;;;;;6.10;2.87;;;;;;;;;;5089986;28;20579;-61
2024/01/29 04:15:33;;;;;;;5.33;2.43;;;;;;;;;;5086546;28;20213;-61
2024/01/29 04:18:00;;;;;;;2.93;2.63;;;;;;;;;;5087299;28;20220;-61
2024/01/29 04:20:27;;;;;;;3.90;2.70;;;;;;;;;;5087222;28;20659;-61
2024/01/29 04:22:55;;;;;;;5.17;3.00;;;;;;;;;;5087218;28;20205;-61
2024/01/29 04:25:22;;;;;;;4.30;2.30;;;;;;;;;;5087053;28;20205;-61
2024/01/29 04:27:51;;;;;;;2.80;2.60;;;;;;;;;;5088469;28;20676;-61
2024/01/29 04:30:18;;;;;;;3.33;3.00;;;;;;;;;;5086507;28;20220;-61
2024/01/29 04:32:45;;;;;;;3.10;2.87;;;;;;;;;;5077160;28;20665;-61
2024/01/29 04:35:12;;;;;;;3.93;2.80;;;;;;;;;;5086422;28;20205;-61
2024/01/29 04:37:39;;;;;;;2.77;2.47;;;;;;;;;;5087367;28;20902;-61
2024/01/29 04:40:09;;;;;;;3.27;2.90;;;;;;;;;;5087168;28;20213;-61
2024/01/29 04:42:36;;;;;;;5.07;2.90;;;;;;;;;;5091023;28;20213;-61
2024/01/29 04:45:03;;;;;;;2.53;2.30;;;;;;;;;;5086689;28;20805;-61
2024/01/29 04:47:30;;;;;;;2.60;2.40;;;;;;;;;;5086666;28;20254;-64
2024/01/29 04:49:57;;;;;;;3.40;3.00;;;;;;;;;;5087392;28;20576;-62
2024/01/29 04:52:24;;;;;;;6.17;3.00;;;;;;;;;;5087089;28;20229;-62
2024/01/29 04:54:51;;;;;;;4.90;3.27;;;;;;;;;;5076962;28;20214;-62
2024/01/29 04:57:20;;;;;;;2.50;2.40;;;;;;;;;;5080479;28;20199;-61
2024/01/29 04:59:47;;;;;;;3.53;3.23;;;;;;;;;;5086713;28;20252;-61
2024/01/29 05:02:14;;;;;;;5.90;3.80;;;;;;;;;;5083846;28;20201;-61
2024/01/29 05:04:44;;;;;;;4.27;3.40;;;;;;;;;;5086714;28;20209;-61
2024/01/29 05:07:11;;;;;;;3.53;3.23;;;;;;;;;;5081647;28;20211;-61
2024/01/29 05:09:39;;;;;;;3.20;2.87;;;;;;;;;;5073847;28;20253;-61
2024/01/29 05:12:06;;;;;;;6.20;3.87;;;;;;;;;;5075240;28;20291;-61
2024/01/29 05:14:35;;;;;;;8.57;5.97;;;;;;;;;;5090601;28;20209;-61
2024/01/29 05:17:02;;;;;;;5.63;3.87;;;;;;;;;;5089189;28;20203;-61
2024/01/29 05:19:29;;;;;;;5.03;3.63;;;;;;;;;;5090929;28;20667;-61
2024/01/29 05:21:56;;;;;;;3.77;3.43;;;;;;;;;;5089789;28;20210;-61
2024/01/29 05:24:23;;;;;;;5.00;3.33;;;;;;;;;;5089652;28;20201;-62
2024/01/29 05:26:50;;;;;;;5.33;3.90;;;;;;;;;;5089356;28;20210;-61
2024/01/29 05:29:17;;;;;;;6.47;3.60;;;;;;;;;;5091755;28;20213;-63
2024/01/29 05:31:45;;;;;;;5.07;4.07;;;;;;;;;;5086153;28;20225;-62
2024/01/29 05:34:12;;;;;;;4.47;3.57;;;;;;;;;;5090411;28;20213;-62
2024/01/29 05:36:39;;;;;;;3.37;3.07;;;;;;;;;;5090028;28;20210;-62
2024/01/29 05:39:06;;;;;;;5.07;3.30;;;;;;;;;;5085274;28;20581;-62
2024/01/29 05:41:33;;;;;;;6.90;3.60;;;;;;;;;;5070511;28;20214;-62
2024/01/29 05:44:01;;;;;;;5.10;3.07;;;;;;;;;;5090744;28;20205;-62
2024/01/29 05:46:28;;;;;;;5.17;3.37;;;;;;;;;;5090886;28;20293;-62
2024/01/29 05:48:56;;;;;;;4.07;3.47;;;;;;;;;;5098919;28;20205;-62
2024/01/29 05:51:23;;;;;;;3.10;2.90;;;;;;;;;;5090292;28;20236;-62
2024/01/29 05:53:50;;;;;;;3.93;3.17;;;;;;;;;;5090339;28;20269;-63
2024/01/29 05:56:17;;;;;;;3.97;3.57;;;;;;;;;;5086444;28;20217;-64
2024/01/29 05:58:46;;;;;;;4.73;2.97;;;;;;;;;;5087422;28;20236;-62
2024/01/29 06:01:13;;;;;;;3.40;2.90;;;;;;;;;;5087888;28;20240;-62
2024/01/29 06:03:40;;;;;;;3.67;2.80;;;;;;;;;;5090054;28;20204;-62
2024/01/29 06:06:09;;;;;;;4.70;3.63;;;;;;;;;;5078929;28;20218;-62
2024/01/29 06:08:36;;;;;;;3.10;2.80;;;;;;;;;;5089686;28;20197;-62
2024/01/29 06:11:03;;;;;;;2.43;2.30;;;;;;;;;;5079045;28;20256;-63
2024/01/29 06:13:30;;;;;;;2.93;2.63;;;;;;;;;;5088929;28;20600;-63
2024/01/29 06:15:58;;;;;;;4.80;3.60;;;;;;;;;;5089485;28;20206;-61
2024/01/29 06:18:25;;;;;;;3.27;3.00;;;;;;;;;;5089594;28;20209;-61
2024/01/29 06:20:52;;;;;;;4.80;3.13;;;;;;;;;;5069527;28;20205;-61
2024/01/29 06:23:20;;;;;;;8.40;4.07;;;;;;;;;;5068701;28;20211;-60
2024/01/29 06:25:47;;;;;;;4.43;3.30;;;;;;;;;;5086975;28;20216;-61
2024/01/29 06:28:14;;;;;;;7.17;4.07;;;;;;;;;;5083430;28;20215;-61
2024/01/29 06:30:41;;;;;;;4.03;3.27;;;;;;;;;;5074147;28;20214;-62
2024/01/29 06:33:08;;;;;;;4.70;3.50;;;;;;;;;;5091658;28;20229;-62
2024/01/29 06:35:35;;;;;;;3.57;3.20;;;;;;;;;;5088797;28;20217;-61
2024/01/29 06:38:03;;;;;;;3.83;3.23;;;;;;;;;;5089250;28;20213;-62
2024/01/29 06:40:31;;;;;;;5.70;3.60;;;;;;;;;;5086297;28;20216;-62
2024/01/29 06:42:58;;;;;;;4.07;3.70;;;;;;;;;;5087143;28;20213;-62
2024/01/29 06:45:25;;;;;;;4.87;3.13;;;;;;;;;;5088208;28;20220;-61
2024/01/29 06:47:52;;;;;;;4.17;3.10;;;;;;;;;;5076722;28;20217;-61
2024/01/29 06:50:19;;;;;;;3.70;3.40;;;;;;;;;;5087043;28;20209;-61
2024/01/29 06:52:47;;;;;;;4.17;3.70;;;;;;;;;;5069008;28;20233;-61
2024/01/29 06:55:14;;;;;;;6.20;4.30;;;;;;;;;;5068851;28;20214;-62
2024/01/29 06:57:42;;;;;;;5.80;4.60;;;;;;;;;;5068747;28;20217;-61
2024/01/29 07:00:10;;;;;;;6.23;4.50;;;;;;;;;;5068968;28;20266;-62
2024/01/29 07:02:37;;;;;;;6.47;4.20;;;;;;;;;;5068124;28;20217;-62
2024/01/29 07:05:04;;;;;;;6.77;4.53;;;;;;;;;;5068982;28;20213;-61
2024/01/29 07:07:31;;;;;;;6.97;4.20;;;;;;;;;;5068857;28;20621;-62
2024/01/29 07:09:58;;;;;;;4.97;4.17;;;;;;;;;;5068869;28;20234;-62
2024/01/29 07:12:26;;;;;;;6.43;4.40;;;;;;;;;;5068919;28;20241;-62
2024/01/29 07:14:55;;;;;;;6.53;4.37;;;;;;;;;;5068855;28;20217;-62
2024/01/29 07:17:22;;;;;;;4.83;4.37;;;;;;;;;;5068801;28;20235;-62
2024/01/29 07:19:51;;;;;;;6.87;4.37;;;;;;;;;;5068980;28;20213;-63
2024/01/29 07:22:19;;;;;;;6.67;4.03;;;;;;;;;;5068967;28;20210;-62
2024/01/29 07:24:46;;;;;;;7.63;4.30;;;;;;;;;;5068104;28;20632;-62
2024/01/29 07:27:13;;;;;;;4.10;3.43;;;;;;;;;;5081819;28;20216;-62
2024/01/29 07:29:40;;;;;;;9.87;5.60;;;;;;;;;;5088458;28;20223;-62
2024/01/29 07:32:09;;;;;;;6.53;4.13;;;;;;;;;;5087953;28;20213;-62
2024/01/29 07:34:36;;;;;;;5.17;3.67;;;;;;;;;;5087415;28;20815;-62
2024/01/29 07:37:04;;;;;;;4.67;3.50;;;;;;;;;;5087894;28;20209;-62
2024/01/29 07:39:31;;;;;;;5.13;3.90;;;;;;;;;;5088172;28;20209;-62
2024/01/29 07:41:58;;;;;;;4.90;3.60;;;;;;;;;;5080593;28;20297;-62
2024/01/29 07:44:25;;;;;;;5.10;4.00;;;;;;;;;;5067782;28;20725;-62
2024/01/29 07:46:52;;;;;;;7.60;4.07;;;;;;;;;;5070851;28;20358;-62
2024/01/29 07:49:20;;;;;;;7.27;3.90;;;;;;;;;;5087521;28;20212;-62
2024/01/29 07:51:47;;;;;;;7.27;3.70;;;;;;;;;;5087741;28;20209;-62
2024/01/29 07:54:14;;;;;;;4.40;3.93;;;;;;;;;;5087630;28;20237;-62
2024/01/29 07:56:42;;;;;;;4.07;3.67;;;;;;;;;;5076925;28;20208;-64
2024/01/29 07:59:09;;;;;;;6.87;4.00;;;;;;;;;;5068170;28;20262;-62
2024/01/29 08:01:36;;;;;;;7.57;3.57;;;;;;;;;;5068205;28;20216;-62
2024/01/29 08:04:05;;;;;;;5.03;3.50;;;;;;;;;;5068297;28;20213;-62
2024/01/29 08:06:33;;;;;;;5.27;4.03;;;;;;;;;;5068399;28;20217;-62
2024/01/29 08:09:00;;;;;;;4.60;3.37;;;;;;;;;;5068096;28;20213;-62
2024/01/29 08:11:27;;;;;;;3.63;3.23;;;;;;;;;;5067564;28;20238;-62
2024/01/29 08:13:54;;;;;;;7.07;4.03;;;;;;;;;;5067761;28;20227;-62
2024/01/29 08:16:21;;;;;;;5.33;4.00;;;;;;;;;;5087878;28;20644;-62
2024/01/29 08:18:48;;;;;;;5.00;4.03;;;;;;;;;;5088060;28;20209;-61
2024/01/29 08:21:15;;;;;;;5.80;3.50;;;;;;;;;;5087129;28;20563;-61
2024/01/29 08:23:44;;;;;;;215.43;44.07;;;;;;;;;;5087915;28;20266;-62
2024/01/29 08:26:11;;;;;;;150.83;35.47;;;;;;;;;;5087490;28;20209;-62
2024/01/29 08:28:38;;;;;;;55.40;17.13;;;;;;;;;;5068389;28;20218;-61
2024/01/29 08:31:06;;;;;;;33.90;10.97;;;;;;;;;;5068010;28;20215;-62
2024/01/29 08:33:34;;;;;;;15.30;7.77;;;;;;;;;;5067778;28;20235;-62
2024/01/29 08:36:01;;;;;;;8.17;5.20;;;;;;;;;;5067470;28;20226;-61
2024/01/29 08:38:28;;;;;;;5.10;4.03;;;;;;;;;;5067583;28;20354;-61
2024/01/29 08:40:57;;;;;;;7.23;3.87;;;;;;;;;;5067487;28;20214;-61
2024/01/29 08:43:24;;;;;;;4.90;4.40;;;;;;;;;;5067734;28;20195;-62
2024/01/29 08:45:51;;;;;;;4.80;4.30;;;;;;;;;;5067120;28;20211;-62
2024/01/29 08:48:18;;;;;;;6.97;4.40;;;;;;;;;;5070811;28;20214;-62
2024/01/29 08:50:45;;;;;;;6.23;3.87;;;;;;;;;;5071718;28;20748;-63
2024/01/29 08:53:13;;;;;;;6.97;4.70;;;;;;;;;;5071549;28;20254;-64
2024/01/29 08:55:40;;;;;;;5.60;4.83;;;;;;;;;;5071013;28;20303;-63
2024/01/29 08:58:08;;;;;;;5.60;4.23;;;;;;;;;;5071443;28;20238;-64
2024/01/29 09:00:35;;;;;;;5.03;4.53;;;;;;;;;;5071391;28;20213;-63
2024/01/29 09:03:02;;;;;;;9.53;5.17;;;;;;;;;;5071222;28;20207;-63
2024/01/29 09:05:29;;;;;;;10.30;6.13;;;;;;;;;;5071578;28;20241;-63
2024/01/29 09:07:56;;;;;;;8.43;5.70;;;;;;;;;;5070778;28;20653;-63
2024/01/29 09:10:24;;;;;;;8.73;5.97;;;;;;;;;;5070998;28;20230;-62
2024/01/29 09:12:51;;;;;;;8.13;6.13;;;;;;;;;;5094673;28;20232;-63
2024/01/29 09:15:19;;;;;;;7.77;6.13;;;;;;;;;;5092290;28;20238;-62
2024/01/29 09:17:47;;;;;;;7.00;5.70;;;;;;;;;;5112055;28;20211;-60
2024/01/29 09:20:15;;;;;;;8.83;5.87;;;;;;;;;;5078717;28;20209;-66
2024/01/29 09:22:42;;;;;;;11.27;6.50;;;;;;;;;;5091271;28;20245;-65
2024/01/29 09:25:09;;;;;;;11.40;6.60;;;;;;;;;;5091966;28;20210;-64
2024/01/29 09:27:41;;;;;;;10.90;7.10;;;;;;;;;;5096129;28;20205;-63
2024/01/29 09:30:09;;;;;;;11.03;7.53;;;;;;;;;;5107400;28;20213;-65
2024/01/29 09:32:37;;;;;;;12.53;7.60;;;;;;;;;;5096631;28;20317;-63
2024/01/29 09:35:05;;;;;;;11.57;7.80;;;;;;;;;;5081365;28;20222;-63
2024/01/29 09:37:32;;;;;;;12.93;8.57;;;;;;;;;;5091500;28;20320;-63
2024/01/29 09:39:59;;;;;;;9.70;7.57;;;;;;;;;;5091528;28;20255;-69
2024/01/29 09:42:28;;;;;;;11.53;8.07;;;;;;;;;;5095599;28;20210;-64
2024/01/29 09:44:55;;;;;;;12.03;8.03;;;;;;;;;;5110877;28;20201;-62
2024/01/29 09:47:22;;;;;;;9.10;7.57;;;;;;;;;;5091199;28;20266;-63
2024/01/29 09:49:51;;;;;;;11.90;8.30;;;;;;;;;;5097556;28;20203;-64
2024/01/29 09:52:18;;;;;;;11.10;8.47;;;;;;;;;;5086460;28;20203;-63
2024/01/29 09:55:00;;;;;;;14.23;8.37;;;;;;;;;;5070344;28;20322;-64
2024/01/29 09:57:27;;;;;;;11.20;8.10;;;;;;;;;;5070906;28;20673;-63
2024/01/29 09:59:54;;;;;;;9.30;8.30;;;;;;;;;;5089653;28;20218;-63
2024/01/29 10:02:22;;;;;;;14.53;8.27;;;;;;;;;;5089786;28;20954;-63
2024/01/29 10:04:51;;;;;;;13.43;8.83;;;;;;;;;;5090477;28;20206;-62
2024/01/29 10:07:18;;;;;;;13.67;9.17;;;;;;;;;;5106289;28;20216;-63
2024/01/29 10:09:45;;;;;;;9.80;8.20;;;;;;;;;;5090783;28;20295;-63
2024/01/29 10:12:21;;;;;;;10.20;8.30;;;;;;;;;;5090065;28;20210;-63
2024/01/29 10:14:48;;;;;;;10.37;8.00;;;;;;;;;;5090779;28;20230;-64
2024/01/29 10:17:15;;;;;;;11.37;8.20;;;;;;;;;;5090884;28;20355;-63
2024/01/29 10:19:43;;;;;;;9.80;7.30;;;;;;;;;;5090276;28;20199;-63
2024/01/29 10:22:14;;;;;;;12.03;9.00;;;;;;;;;;5108310;28;20208;-63
2024/01/29 10:24:41;;;;;;;10.87;7.80;;;;;;;;;;5102110;28;20201;-63
2024/01/29 10:27:08;;;;;;;12.27;8.60;;;;;;;;;;5089818;28;20210;-63
2024/01/29 10:29:36;;;;;;;10.83;8.73;;;;;;;;;;5094243;28;20668;-63
2024/01/29 10:32:03;;;;;;;9.70;8.03;;;;;;;;;;5091750;28;20197;-60
2024/01/29 10:34:30;;;;;;;11.70;8.33;;;;;;;;;;5096691;28;20230;-61
2024/01/29 10:36:58;;;;;;;12.23;8.47;;;;;;;;;;5104486;28;20211;-59
2024/01/29 10:39:26;;;;;;;12.87;8.50;;;;;;;;;;5077151;28;20500;-63
2024/01/29 10:41:53;;;;;;;13.80;8.63;;;;;;;;;;5087581;28;20214;-62
2024/01/29 10:44:22;;;;;;;11.00;8.30;;;;;;;;;;5087714;28;20202;-62
2024/01/29 10:46:49;;;;;;;12.57;9.17;;;;;;;;;;5087615;28;20228;-62
2024/01/29 10:49:16;;;;;;;15.10;8.30;;;;;;;;;;5102932;28;20205;-61
2024/01/29 10:51:44;;;;;;;10.70;8.53;;;;;;;;;;5108049;28;20221;-61
2024/01/29 10:54:12;;;;;;;11.90;8.73;;;;;;;;;;5107378;28;20676;-61
2024/01/29 10:56:40;;;;;;;12.20;9.10;;;;;;;;;;5095303;28;20202;-61
2024/01/29 10:59:08;;;;;;;11.30;8.67;;;;;;;;;;5088036;28;20226;-61
2024/01/29 11:01:35;;;;;;;13.53;8.90;;;;;;;;;;5085834;28;20206;-61
2024/01/29 11:04:03;;;;;;;9.63;8.17;;;;;;;;;;5103058;28;20205;-64
2024/01/29 11:06:34;;;;;;;8.77;7.87;;;;;;;;;;5108285;28;20308;-62
2024/01/29 11:09:03;;;;;;;12.77;8.93;;;;;;;;;;5093445;28;20829;-61
2024/01/29 11:11:30;;;;;;;11.13;8.90;;;;;;;;;;5066357;28;20278;-61
2024/01/29 11:13:59;;;;;;;12.03;8.40;;;;;;;;;;5066680;28;20222;-61
2024/01/29 11:16:26;;;;;;;12.73;8.73;;;;;;;;;;5066856;28;20276;-61
2024/01/29 11:18:53;;;;;;;12.07;9.88;;;;;;;;;;5075430;28;20540;-62
2024/01/29 11:21:25;;;;;;;9.63;8.60;;;;;;;;;;5066560;28;20207;-61
2024/01/29 11:23:54;;;;;;;12.60;9.17;;;;;;;;;;5066622;28;20218;-62
2024/01/29 11:26:23;;;;;;;12.47;9.47;;;;;;;;;;5082452;28;20289;-68
2024/01/29 11:28:55;;;;;;;12.40;9.20;;;;;;;;;;5090157;28;20684;-62
2024/01/29 11:31:24;;;;;;;10.70;8.47;;;;;;;;;;5087728;28;20203;-61
2024/01/29 11:33:51;;;;;;;12.33;9.03;;;;;;;;;;5088550;28;20213;-62
2024/01/29 11:39:14;;;;;;;12.10;8.67;;;;;;;;;;5090724;28;20205;-60
2024/01/29 11:41:48;;;;;;;11.80;9.43;;;;;;;;;;5090522;28;20199;-62
2024/01/29 11:44:18;;;;;;;11.37;8.90;;;;;;;;;;5081142;28;20660;-62
2024/01/29 11:46:46;;;;;;;12.30;9.47;;;;;;;;;;5082451;28;20591;-63
2024/01/29 11:49:13;;;;;;;11.00;8.57;;;;;;;;;;5088094;28;20229;-63
2024/01/29 11:51:40;;;;;;;10.70;9.60;;;;;;;;;;5094505;28;20826;-64
2024/01/29 11:54:07;;;;;;;13.40;9.47;;;;;;;;;;5071061;28;20225;-63
2024/01/29 11:56:34;;;;;;;10.17;9.03;;;;;;;;;;5078760;28;20214;-63
2024/01/29 11:59:02;;;;;;;13.57;9.33;;;;;;;;;;5090865;28;20225;-63
2024/01/29 12:01:30;;;;;;;10.97;9.30;;;;;;;;;;5089864;28;20695;-63
2024/01/29 12:03:59;;;;;;;11.30;8.80;;;;;;;;;;5087776;28;20663;-63
2024/01/29 12:06:26;;;;;;;11.67;9.37;;;;;;;;;;5071490;28;20723;-63
2024/01/29 12:08:53;;;;;;;10.80;8.90;;;;;;;;;;5094893;28;20667;-62
2024/01/29 12:11:21;;;;;;;13.90;10.03;;;;;;;;;;5100313;28;20236;-63
2024/01/29 12:13:49;;;;;;;14.23;9.30;;;;;;;;;;5084368;28;20203;-61
2024/01/29 12:16:16;;;;;;;11.13;9.30;;;;;;;;;;5091095;28;20222;-60
2024/01/29 12:18:44;;;;;;;14.80;10.88;;;;;;;;;;5105909;28;20849;-63
2024/01/29 12:21:12;;;;;;;11.03;8.97;;;;;;;;;;5107668;28;20578;-62
2024/01/29 12:23:39;;;;;;;13.20;9.00;;;;;;;;;;5106369;28;20206;-63
2024/01/29 12:26:06;;;;;;;13.03;9.00;;;;;;;;;;5108130;28;20254;-62
2024/01/29 12:28:33;;;;;;;11.30;8.67;;;;;;;;;;5100706;28;20643;-61
2024/01/29 12:31:05;;;;;;;10.20;8.87;;;;;;;;;;5087701;28;20219;-62
2024/01/29 12:33:32;;;;;;;11.07;9.10;;;;;;;;;;5089209;28;20302;-61
2024/01/29 12:35:59;;;;;;;10.73;8.43;;;;;;;;;;5086756;28;20237;-62
2024/01/29 12:38:28;;;;;;;13.17;8.33;;;;;;;;;;5087692;28;20847;-62
2024/01/29 12:40:58;;;;;;;11.43;9.00;;;;;;;;;;5087028;28;20221;-62
2024/01/29 12:43:28;;;;;;;10.10;8.67;;;;;;;;;;5102650;28;20206;-62
2024/01/29 12:46:05;;;;;;;12.03;8.90;;;;;;;;;;5107909;28;20215;-62
2024/01/29 12:48:32;;;;;;;10.83;9.00;;;;;;;;;;5084262;28;20219;-63
2024/01/29 12:50:59;;;;;;;11.17;8.23;;;;;;;;;;5085132;28;20672;-62
2024/01/29 12:53:28;;;;;;;10.60;9.00;;;;;;;;;;5106852;28;20194;-62
2024/01/29 12:55:55;;;;;;;12.27;8.83;;;;;;;;;;5067422;28;20658;-62
2024/01/29 12:58:23;;;;;;;9.50;8.20;;;;;;;;;;5067499;28;20230;-62
2024/01/29 13:00:51;;;;;;;10.83;8.83;;;;;;;;;;5066938;28;20706;-61
2024/01/29 13:03:18;;;;;;;10.40;9.03;;;;;;;;;;5086466;28;20263;-62
2024/01/29 13:05:45;;;;;;;15.57;8.80;;;;;;;;;;5083668;28;20207;-61
2024/01/29 13:08:12;;;;;;;11.43;8.70;;;;;;;;;;5067440;28;20211;-62
2024/01/29 13:10:40;;;;;;;12.87;8.37;;;;;;;;;;5067318;28;20292;-62
2024/01/29 13:13:07;;;;;;;10.03;8.47;;;;;;;;;;5067511;28;20215;-62
2024/01/29 13:15:35;;;;;;;12.33;8.63;;;;;;;;;;5067339;28;20246;-62
2024/01/29 13:18:02;;;;;;;11.80;8.77;;;;;;;;;;5071936;28;20203;-62
2024/01/29 13:20:29;;;;;;;10.40;9.30;;;;;;;;;;5085272;28;20256;-63
2024/01/29 13:22:57;;;;;;;9.73;8.37;;;;;;;;;;5099862;28;20199;-61
2024/01/29 13:25:24;;;;;;;12.63;8.80;;;;;;;;;;5087512;28;20252;-62
2024/01/29 13:27:52;;;;;;;9.90;8.40;;;;;;;;;;5087693;28;20209;-62
2024/01/29 13:30:19;;;;;;;11.10;8.87;;;;;;;;;;5087051;28;20292;-62
2024/01/29 13:32:46;;;;;;;10.93;8.67;;;;;;;;;;5087935;28;20301;-63
2024/01/29 13:35:13;;;;;;;13.57;8.60;;;;;;;;;;5092311;28;20225;-62
2024/01/29 13:37:40;;;;;;;11.00;8.97;;;;;;;;;;5091108;28;20222;-62
2024/01/29 13:40:09;;;;;;;9.93;8.27;;;;;;;;;;5089575;28;20210;-61
2024/01/29 13:42:36;;;;;;;11.00;8.00;;;;;;;;;;5090322;28;20199;-63
2024/01/29 13:45:06;;;;;;;10.57;9.03;;;;;;;;;;5089928;28;20424;-63
2024/01/29 13:47:33;;;;;;;11.60;9.23;;;;;;;;;;5089689;28;20218;-63
2024/01/29 13:50:01;;;;;;;12.93;8.73;;;;;;;;;;5090174;28;20228;-63
2024/01/29 13:52:28;;;;;;;9.87;8.07;;;;;;;;;;5080414;28;20215;-64
2024/01/29 13:54:55;;;;;;;9.93;8.50;;;;;;;;;;5076509;28;20285;-63
2024/01/29 13:57:22;;;;;;;12.90;9.70;;;;;;;;;;5078633;28;20635;-61
2024/01/29 13:59:51;;;;;;;11.97;9.27;;;;;;;;;;5069757;28;20215;-73
2024/01/29 14:02:19;;;;;;;10.53;8.23;;;;;;;;;;5077641;28;20229;-62
2024/01/29 14:04:46;;;;;;;13.63;10.83;;;;;;;;;;5090239;28;20313;-67
2024/01/29 14:07:13;;;;;;;14.70;11.17;;;;;;;;;;5093604;28;20198;-62
2024/01/29 14:09:40;;;;;;;14.00;10.10;;;;;;;;;;5094497;28;20674;-62
2024/01/29 14:12:08;;;;;;;15.93;10.30;;;;;;;;;;5089486;28;20210;-62
2024/01/29 14:14:35;;;;;;;23.63;13.67;;;;;;;;;;5089596;28;20699;-62
2024/01/29 14:17:02;;;;;;;16.37;10.50;;;;;;;;;;5089043;28;20263;-63
2024/01/29 14:19:30;;;;;;;14.37;9.43;;;;;;;;;;5108717;28;20555;-62
2024/01/29 14:21:58;;;;;;;10.83;8.97;;;;;;;;;;5104627;28;20202;-61
2024/01/29 14:24:25;;;;;;;13.73;9.97;;;;;;;;;;5109878;28;20312;-63
2024/01/29 14:26:52;;;;;;;13.50;9.73;;;;;;;;;;5107222;28;20206;-64
2024/01/29 14:29:19;;;;;;;12.37;9.27;;;;;;;;;;5089200;28;20218;-63
2024/01/29 14:31:46;;;;;;;12.67;9.47;;;;;;;;;;5089406;28;20214;-63
2024/01/29 14:34:14;;;;;;;12.33;9.33;;;;;;;;;;5088604;28;20214;-64
2024/01/29 14:36:43;;;;;;;13.47;10.37;;;;;;;;;;5089632;28;20234;-62
2024/01/29 14:39:10;;;;;;;16.80;11.67;;;;;;;;;;5083849;28;20207;-63
2024/01/29 14:41:46;;;;;;;14.00;9.87;;;;;;;;;;5071531;28;20211;-64
2024/01/29 14:44:13;;;;;;;16.20;10.73;;;;;;;;;;5086218;28;20210;-65
2024/01/29 14:46:40;;;;;;;15.63;10.87;;;;;;;;;;5079794;28;20204;-61